Time;durP1;ratioP1;P1;durP2;ratioP2;P2;SDS_P1;SDS_P2;PMS_P1;PMS_P2;Temp;Humidity;BMP_temperature;BMP_pressure;BME280_temperature;BME280_humidity;BME280_pressure;Samples;Min_cycle;Max_cycle;Signal;HPM_P1;HPM_P2
2021/01/29 00:00:33;;;;;;;;;;;28.70;31.80;;;;;;5094276;28;20392;-57
2021/01/29 00:02:59;;;;;;;;;;;28.70;31.80;;;;;;5092830;28;19912;-53
2021/01/29 00:05:26;;;;;;;;;;;28.70;31.80;;;;;;5095185;28;20004;-54
2021/01/29 00:07:51;;;;;;;;;;;28.70;31.80;;;;;;5094770;28;20293;-57
2021/01/29 00:10:17;;;;;;;;;;;28.70;31.80;;;;;;5088325;28;19923;-58
2021/01/29 00:12:42;;;;;;;;;;;28.70;31.80;;;;;;5074458;28;19977;-53
2021/01/29 00:15:08;;;;;;;;;;;28.70;31.80;;;;;;5090515;28;19999;-54
2021/01/29 00:17:34;;;;;;;;;;;28.70;31.80;;;;;;5082227;28;19987;-57
2021/01/29 00:20:00;;;;;;;;;;;28.70;31.80;;;;;;5074544;28;19915;-56
2021/01/29 00:22:25;;;;;;;;;;;28.70;31.80;;;;;;5074524;28;19912;-53
2021/01/29 00:24:51;;;;;;;;;;;28.60;31.70;;;;;;5092400;28;19938;-55
2021/01/29 00:27:16;;;;;;;;;;;28.70;31.80;;;;;;5093082;28;20354;-57
2021/01/29 00:29:42;;;;;;;;;;;28.60;31.70;;;;;;5076718;28;19950;-54
2021/01/29 00:32:07;;;;;;;;;;;28.60;31.70;;;;;;5083527;28;19923;-54
2021/01/29 00:34:33;;;;;;;;;;;28.60;31.70;;;;;;5074330;28;20324;-57
2021/01/29 00:36:59;;;;;;;;;;;28.60;31.70;;;;;;5092706;28;20392;-56
2021/01/29 00:39:24;;;;;;;;;;;28.60;31.70;;;;;;5094176;28;19955;-57
2021/01/29 00:41:50;;;;;;;;;;;28.60;31.70;;;;;;5080442;28;19961;-52
2021/01/29 00:44:15;;;;;;;;;;;28.60;31.70;;;;;;5074116;28;19932;-56
2021/01/29 00:46:41;;;;;;;;;;;28.60;31.70;;;;;;5077338;28;20001;-55
2021/01/29 00:49:06;;;;;;;;;;;28.60;31.70;;;;;;5073923;28;20365;-54
2021/01/29 00:51:32;;;;;;;;;;;28.60;31.70;;;;;;5073750;28;19952;-54
2021/01/29 00:53:57;;;;;;;;;;;28.60;31.70;;;;;;5074933;28;19923;-53
2021/01/29 00:56:22;;;;;;;;;;;28.60;31.70;;;;;;5073896;28;19913;-53
2021/01/29 00:58:48;;;;;;;;;;;28.60;31.70;;;;;;5083001;28;19923;-54
2021/01/29 01:01:14;;;;;;;;;;;28.60;31.70;;;;;;5089755;28;19948;-57
2021/01/29 01:03:40;;;;;;;;;;;28.60;31.70;;;;;;5073492;28;19909;-55
2021/01/29 01:06:05;;;;;;;;;;;28.60;31.70;;;;;;5073299;28;19966;-54
2021/01/29 01:08:31;;;;;;;;;;;28.50;31.60;;;;;;5087521;28;19912;-57
2021/01/29 01:10:56;;;;;;;;;;;28.50;31.60;;;;;;5075343;28;19914;-56
2021/01/29 01:13:22;;;;;;;;;;;28.60;31.70;;;;;;5073972;28;19920;-56
2021/01/29 01:15:47;;;;;;;;;;;28.60;31.70;;;;;;5086887;28;19912;-56
2021/01/29 01:18:13;;;;;;;;;;;28.60;31.70;;;;;;5093317;28;19971;-56
2021/01/29 01:20:38;;;;;;;;;;;28.50;31.60;;;;;;5093446;28;20362;-53
2021/01/29 01:23:05;;;;;;;;;;;28.50;31.60;;;;;;5089868;28;20003;-52
2021/01/29 01:25:31;;;;;;;;;;;28.50;31.70;;;;;;5073382;28;19916;-57
2021/01/29 01:27:57;;;;;;;;;;;28.50;31.60;;;;;;5078474;28;19912;-56
2021/01/29 01:30:24;;;;;;;;;;;28.50;31.60;;;;;;5093159;28;19942;-53
2021/01/29 01:32:49;;;;;;;;;;;28.50;31.60;;;;;;5089229;28;20484;-55
2021/01/29 01:35:15;;;;;;;;;;;28.50;31.60;;;;;;5092708;28;19966;-55
2021/01/29 01:37:40;;;;;;;;;;;28.60;31.70;;;;;;5092855;28;19922;-58
2021/01/29 01:40:06;;;;;;;;;;;28.50;31.60;;;;;;5093399;28;19912;-55
2021/01/29 01:42:32;;;;;;;;;;;28.50;31.60;;;;;;5077353;28;20010;-53
2021/01/29 01:44:57;;;;;;;;;;;28.50;31.60;;;;;;5091970;28;19919;-54
2021/01/29 01:47:26;;;;;;;;;;;28.50;31.60;;;;;;5083007;28;19941;-57
2021/01/29 01:49:53;;;;;;;;;;;28.50;31.60;;;;;;5090928;28;20300;-52
2021/01/29 01:52:21;;;;;;;;;;;28.50;31.60;;;;;;5074844;28;19954;-55
2021/01/29 01:55:10;;;;;;;;;;;28.50;31.60;;;;;;5067334;28;19912;-56
2021/01/29 01:57:35;;;;;;;;;;;28.50;31.60;;;;;;5079262;28;19919;-53
2021/01/29 02:00:05;;;;;;;;;;;28.50;31.60;;;;;;5081474;28;20396;-57
2021/01/29 02:02:31;;;;;;;;;;;28.50;31.60;;;;;;5064359;28;19913;-58
2021/01/29 02:04:56;;;;;;;;;;;28.50;31.60;;;;;;5074736;28;20282;-52
2021/01/29 02:07:42;;;;;;;;;;;28.40;31.50;;;;;;5073344;28;19919;-54
2021/01/29 02:10:08;;;;;;;;;;;28.40;31.50;;;;;;5091893;28;19908;-55
2021/01/29 02:12:33;;;;;;;;;;;28.50;31.50;;;;;;5088973;28;19958;-54
2021/01/29 02:14:58;;;;;;;;;;;28.50;31.50;;;;;;5074852;28;20308;-56
2021/01/29 02:17:27;;;;;;;;;;;28.50;31.50;;;;;;5082225;28;19924;-54
2021/01/29 02:20:11;;;;;;;;;;;28.50;31.60;;;;;;5092867;28;19953;-55
2021/01/29 02:22:39;;;;;;;;;;;28.50;31.50;;;;;;5072355;28;20263;-54
2021/01/29 02:25:23;;;;;;;;;;;28.40;31.50;;;;;;5076221;28;19913;-56
2021/01/29 02:27:53;;;;;;;;;;;28.40;31.50;;;;;;5086203;28;20438;-58
2021/01/29 02:30:21;;;;;;;;;;;28.40;31.50;;;;;;5061970;28;19956;-58
2021/01/29 02:32:53;;;;;;;;;;;28.50;31.60;;;;;;5086374;28;19927;-56
2021/01/29 02:35:21;;;;;;;;;;;28.40;31.50;;;;;;5096524;28;20353;-57
2021/01/29 02:37:46;;;;;;;;;;;28.40;31.50;;;;;;5094726;28;19961;-59
2021/01/29 02:40:16;;;;;;;;;;;28.50;31.60;;;;;;5076717;28;19909;-57
2021/01/29 02:43:00;;;;;;;;;;;28.40;31.40;;;;;;5076445;28;19908;-55
2021/01/29 02:45:27;;;;;;;;;;;28.40;31.40;;;;;;5089020;28;19924;-58
2021/01/29 02:47:54;;;;;;;;;;;28.40;31.40;;;;;;5061047;28;19934;-57
2021/01/29 02:50:26;;;;;;;;;;;28.40;31.50;;;;;;5096559;28;19931;-56
2021/01/29 02:52:54;;;;;;;;;;;28.40;31.50;;;;;;5096133;28;19943;-58
2021/01/29 02:55:24;;;;;;;;;;;28.40;31.40;;;;;;5078355;28;19908;-59
2021/01/29 02:57:58;;;;;;;;;;;28.40;31.40;;;;;;5068527;28;20437;-58
2021/01/29 03:00:27;;;;;;;;;;;28.40;31.40;;;;;;5078069;28;19915;-53
2021/01/29 03:02:59;;;;;;;;;;;28.40;31.40;;;;;;5065499;28;19913;-54
2021/01/29 03:05:34;;;;;;;;;;;28.40;31.40;;;;;;5058204;28;19912;-56
2021/01/29 03:08:01;;;;;;;;;;;28.40;31.40;;;;;;5078218;28;19920;-56
2021/01/29 03:10:37;;;;;;;;;;;28.40;31.40;;;;;;5076899;28;20350;-54
2021/01/29 03:13:04;;;;;;;;;;;28.40;31.40;;;;;;5081571;28;20355;-58
2021/01/29 03:15:32;;;;;;;;;;;28.40;31.40;;;;;;5067506;28;19912;-58
2021/01/29 03:18:27;;;;;;;;;;;28.40;31.40;;;;;;5067619;28;19981;-56
2021/01/29 03:20:55;;;;;;;;;;;28.40;31.40;;;;;;5006002;28;20013;-57
2021/01/29 03:23:29;;;;;;;;;;;28.40;31.40;;;;;;5071499;28;19921;-58
2021/01/29 03:26:03;;;;;;;;;;;28.40;31.40;;;;;;5076298;28;20011;-56
2021/01/29 03:28:29;;;;;;;;;;;28.40;31.40;;;;;;5076028;28;19919;-57
2021/01/29 03:30:55;;;;;;;;;;;28.40;31.40;;;;;;5077320;28;19920;-56
2021/01/29 03:33:22;;;;;;;;;;;28.40;31.40;;;;;;5068319;28;19920;-55
2021/01/29 03:36:04;;;;;;;;;;;28.40;31.40;;;;;;5077336;28;19953;-57
2021/01/29 03:38:41;;;;;;;;;;;28.40;31.40;;;;;;5076264;28;19920;-54
2021/01/29 03:41:09;;;;;;;;;;;28.40;31.40;;;;;;5077250;28;20361;-56
2021/01/29 03:43:37;;;;;;;;;;;28.40;31.40;;;;;;5087513;28;19919;-61
2021/01/29 03:46:12;;;;;;;;;;;28.40;31.40;;;;;;5060473;28;19912;-54
2021/01/29 03:48:46;;;;;;;;;;;28.40;31.40;;;;;;5094865;28;19934;-52
2021/01/29 03:51:19;;;;;;;;;;;28.40;31.40;;;;;;5089549;28;19924;-54
2021/01/29 03:53:45;;;;;;;;;;;28.40;31.40;;;;;;5066205;28;19912;-53
2021/01/29 03:56:18;;;;;;;;;;;28.40;31.40;;;;;;5095071;28;19962;-56
2021/01/29 03:59:01;;;;;;;;;;;28.40;31.40;;;;;;5068106;28;20003;-54
2021/01/29 04:01:39;;;;;;;;;;;28.30;31.30;;;;;;5058938;28;19920;-57
2021/01/29 04:04:23;;;;;;;;;;;28.40;31.40;;;;;;5095148;28;19962;-58
2021/01/29 04:06:51;;;;;;;;;;;28.30;31.30;;;;;;5074912;28;19950;-56
2021/01/29 04:09:24;;;;;;;;;;;28.40;31.40;;;;;;5069387;28;19916;-55
2021/01/29 04:11:51;;;;;;;;;;;28.30;31.30;;;;;;5076638;28;19908;-54
2021/01/29 04:14:18;;;;;;;;;;;28.30;31.30;;;;;;5081110;28;19916;-58
2021/01/29 04:16:44;;;;;;;;;;;28.30;31.30;;;;;;5074839;28;19932;-56
2021/01/29 04:19:20;;;;;;;;;;;28.40;31.40;;;;;;5056438;28;20301;-54
2021/01/29 04:22:05;;;;;;;;;;;28.30;31.20;;;;;;5056406;28;19912;-55
2021/01/29 04:24:32;;;;;;;;;;;28.40;31.30;;;;;;5088994;28;20392;-55
2021/01/29 04:26:59;;;;;;;;;;;28.40;31.30;;;;;;5062417;28;20381;-52
2021/01/29 04:29:35;;;;;;;;;;;28.30;31.20;;;;;;5071447;28;20036;-57
2021/01/29 04:32:01;;;;;;;;;;;28.40;31.30;;;;;;5065831;28;19986;-52
2021/01/29 04:34:28;;;;;;;;;;;28.40;31.30;;;;;;5076111;28;19909;-54
2021/01/29 04:36:53;;;;;;;;;;;28.40;31.30;;;;;;5076145;28;19908;-54
2021/01/29 04:39:28;;;;;;;;;;;28.40;31.20;;;;;;5093618;28;19961;-58
2021/01/29 04:42:00;;;;;;;;;;;28.40;31.20;;;;;;5074356;28;20393;-56
2021/01/29 04:44:44;;;;;;;;;;;28.30;31.10;;;;;;5079017;28;19917;-52
2021/01/29 04:47:28;;;;;;;;;;;28.40;31.20;;;;;;5076095;28;19963;-54
2021/01/29 04:50:06;;;;;;;;;;;28.40;31.20;;;;;;5094197;28;19916;-54
2021/01/29 04:52:50;;;;;;;;;;;28.40;31.20;;;;;;5094015;28;20002;-55
2021/01/29 04:55:26;;;;;;;;;;;28.40;31.20;;;;;;5092118;28;20431;-57
2021/01/29 04:57:55;;;;;;;;;;;28.40;31.20;;;;;;5091933;28;19923;-58
2021/01/29 05:00:37;;;;;;;;;;;28.40;31.20;;;;;;5055622;28;20306;-56
2021/01/29 05:03:21;;;;;;;;;;;28.40;31.10;;;;;;5094339;28;19994;-55
2021/01/29 05:05:54;;;;;;;;;;;28.40;31.10;;;;;;5093125;28;19920;-58
2021/01/29 05:08:38;;;;;;;;;;;28.40;31.10;;;;;;5067586;28;19913;-58
2021/01/29 05:11:03;;;;;;;;;;;28.40;31.10;;;;;;5073559;28;19974;-56
2021/01/29 05:13:41;;;;;;;;;;;28.40;31.10;;;;;;5073406;28;19916;-57
2021/01/29 05:16:13;;;;;;;;;;;28.40;31.10;;;;;;5057731;28;19920;-57
2021/01/29 05:18:41;;;;;;;;;;;28.40;31.10;;;;;;5059979;28;19931;-56
2021/01/29 05:21:07;;;;;;;;;;;28.40;31.10;;;;;;5073490;28;19987;-58
2021/01/29 05:23:32;;;;;;;;;;;28.40;31.10;;;;;;5073204;28;20362;-56
2021/01/29 05:26:27;;;;;;;;;;;28.40;31.00;;;;;;5073380;28;19913;-57
2021/01/29 05:28:58;;;;;;;;;;;28.40;31.00;;;;;;5069368;28;19912;-57
2021/01/29 05:31:26;;;;;;;;;;;28.50;31.10;;;;;;5088904;28;20015;-57
2021/01/29 05:34:01;;;;;;;;;;;28.50;31.10;;;;;;5070054;28;19908;-56
2021/01/29 05:36:30;;;;;;;;;;;28.50;31.10;;;;;;5072520;28;19918;-58
2021/01/29 05:39:01;;;;;;;;;;;28.50;31.10;;;;;;5075326;28;19920;-56
2021/01/29 05:41:42;;;;;;;;;;;28.40;31.00;;;;;;5093443;28;19908;-58
2021/01/29 05:44:26;;;;;;;;;;;28.50;31.10;;;;;;5080240;28;20007;-57
2021/01/29 05:46:58;;;;;;;;;;;28.50;31.10;;;;;;5075353;28;19921;-58
2021/01/29 05:49:24;;;;;;;;;;;28.40;31.00;;;;;;5060824;28;19920;-57
2021/01/29 05:52:08;;;;;;;;;;;28.40;31.00;;;;;;5055103;28;19912;-56
2021/01/29 05:54:39;;;;;;;;;;;28.50;31.10;;;;;;5072792;28;19916;-57
2021/01/29 05:57:08;;;;;;;;;;;28.40;31.00;;;;;;5072562;28;19955;-58
2021/01/29 05:59:51;;;;;;;;;;;28.40;31.00;;;;;;5087930;28;19920;-54
2021/01/29 06:02:20;;;;;;;;;;;28.50;31.10;;;;;;5091072;28;19919;-54
2021/01/29 06:04:54;;;;;;;;;;;28.40;31.00;;;;;;5074950;28;20388;-53
2021/01/29 06:07:27;;;;;;;;;;;28.50;31.10;;;;;;5072600;28;19981;-54
2021/01/29 06:10:11;;;;;;;;;;;28.50;31.00;;;;;;5073221;28;19918;-57
2021/01/29 06:12:41;;;;;;;;;;;28.50;31.00;;;;;;5092765;28;19908;-57
2021/01/29 06:15:12;;;;;;;;;;;28.50;31.00;;;;;;5055213;28;19916;-58
2021/01/29 06:17:50;;;;;;;;;;;28.50;31.00;;;;;;5085519;28;19919;-53
2021/01/29 06:20:25;;;;;;;;;;;28.50;31.00;;;;;;5064508;28;20019;-57
2021/01/29 06:22:51;;;;;;;;;;;28.50;31.00;;;;;;5055710;28;20428;-56
2021/01/29 06:25:16;;;;;;;;;;;28.50;31.00;;;;;;5072433;28;19912;-58
2021/01/29 06:27:57;;;;;;;;;;;28.50;31.00;;;;;;5078588;28;20377;-53
2021/01/29 06:30:36;;;;;;;;;;;28.50;31.00;;;;;;5073427;28;19927;-56
2021/01/29 06:33:20;;;;;;;;;;;28.50;31.00;;;;;;5064200;28;19908;-56
2021/01/29 06:35:54;;;;;;;;;;;28.50;31.00;;;;;;5092789;28;20310;-57
2021/01/29 06:38:31;;;;;;;;;;;28.50;31.00;;;;;;5072547;28;19927;-57
2021/01/29 06:41:15;;;;;;;;;;;28.50;31.00;;;;;;5072528;28;19994;-59
2021/01/29 06:43:46;;;;;;;;;;;28.50;31.00;;;;;;5072198;28;19913;-54
2021/01/29 06:46:17;;;;;;;;;;;28.50;31.00;;;;;;5072235;28;19916;-56
2021/01/29 06:48:57;;;;;;;;;;;28.50;31.00;;;;;;5092063;28;20432;-55
2021/01/29 06:51:23;;;;;;;;;;;28.50;31.00;;;;;;5074738;28;19944;-55
2021/01/29 06:54:09;;;;;;;;;;;28.50;31.00;;;;;;5076252;28;19940;-53
2021/01/29 06:56:53;;;;;;;;;;;28.50;31.00;;;;;;5060010;28;19946;-57
2021/01/29 06:59:21;;;;;;;;;;;28.50;30.90;;;;;;5078318;28;20038;-53
2021/01/29 07:02:05;;;;;;;;;;;28.50;30.90;;;;;;5077805;28;19935;-58
2021/01/29 07:04:37;;;;;;;;;;;28.50;30.90;;;;;;5072395;28;19917;-57
2021/01/29 07:07:02;;;;;;;;;;;28.50;30.90;;;;;;5071816;28;19989;-58
2021/01/29 07:09:44;;;;;;;;;;;28.50;31.00;;;;;;5088061;28;19959;-58
2021/01/29 07:12:20;;;;;;;;;;;28.50;31.00;;;;;;5057736;28;19917;-57
2021/01/29 07:15:04;;;;;;;;;;;28.50;30.90;;;;;;5058393;28;20436;-57
2021/01/29 07:17:51;;;;;;;;;;;28.50;30.90;;;;;;5075454;28;19970;-59
2021/01/29 07:20:36;;;;;;;;;;;28.50;30.90;;;;;;5057880;28;19913;-55
2021/01/29 07:23:08;;;;;;;;;;;28.50;30.90;;;;;;5080905;28;19916;-55
2021/01/29 07:25:49;;;;;;;;;;;28.50;30.90;;;;;;5077527;28;20456;-57
2021/01/29 07:28:14;;;;;;;;;;;28.60;31.00;;;;;;5090450;28;19958;-57
2021/01/29 07:30:46;;;;;;;;;;;28.50;30.90;;;;;;5078597;28;19920;-56
2021/01/29 07:33:30;;;;;;;;;;;28.50;30.90;;;;;;5084237;28;19985;-57
2021/01/29 07:35:58;;;;;;;;;;;28.60;31.30;;;;;;5075225;28;19908;-56
2021/01/29 07:38:23;;;;;;;;;;;28.50;30.90;;;;;;5081284;28;20312;-58
2021/01/29 07:40:58;;;;;;;;;;;28.50;30.90;;;;;;5095739;28;20287;-56
2021/01/29 07:43:42;;;;;;;;;;;28.50;31.00;;;;;;5088530;28;19919;-57
2021/01/29 07:46:16;;;;;;;;;;;28.50;31.10;;;;;;5076376;28;19913;-56
2021/01/29 07:49:00;;;;;;;;;;;28.50;31.50;;;;;;5083474;28;20320;-54
2021/01/29 07:51:45;;;;;;;;;;;28.50;31.70;;;;;;5074914;28;20394;-53
2021/01/29 07:54:29;;;;;;;;;;;28.50;31.70;;;;;;5075270;28;19915;-54
2021/01/29 07:57:13;;;;;;;;;;;28.50;31.60;;;;;;5085974;28;19999;-48
2021/01/29 07:59:59;;;;;;;;;;;28.40;33.50;;;;;;5095029;28;19920;-58
2021/01/29 08:02:40;;;;;;;;;;;28.40;35.30;;;;;;5055348;28;20289;-61
2021/01/29 08:05:05;;;;;;;;;;;28.30;35.60;;;;;;5074700;28;19975;-59
2021/01/29 08:07:33;;;;;;;;;;;28.30;35.90;;;;;;5074680;28;19956;-52
2021/01/29 08:10:02;;;;;;;;;;;28.40;35.90;;;;;;5056984;28;19912;-59
2021/01/29 08:12:28;;;;;;;;;;;28.40;36.00;;;;;;5074787;28;19982;-49
2021/01/29 08:14:53;;;;;;;;;;;28.40;36.10;;;;;;5075268;28;20317;-47
2021/01/29 08:17:30;;;;;;;;;;;28.40;36.20;;;;;;5092890;28;19916;-53
2021/01/29 08:20:14;;;;;;;;;;;28.40;36.00;;;;;;5057851;28;20363;-53
2021/01/29 08:22:46;;;;;;;;;;;28.40;36.10;;;;;;5081521;28;19913;-68
2021/01/29 08:25:17;;;;;;;;;;;28.40;36.90;;;;;;5076398;28;19926;-60
2021/01/29 08:28:01;;;;;;;;;;;28.40;36.70;;;;;;5074261;28;19916;-60
2021/01/29 08:30:45;;;;;;;;;;;28.40;36.60;;;;;;5074065;28;19943;-59
2021/01/29 08:33:10;;;;;;;;;;;28.40;36.50;;;;;;5060300;28;19912;-62
2021/01/29 08:35:44;;;;;;;;;;;28.40;36.30;;;;;;5087886;28;19923;-63
2021/01/29 08:38:10;;;;;;;;;;;28.40;37.00;;;;;;5094206;28;19916;-60
2021/01/29 08:40:43;;;;;;;;;;;28.40;36.60;;;;;;5094559;28;20239;-62
2021/01/29 08:43:27;;;;;;;;;;;28.40;36.50;;;;;;5071971;28;19912;-62
2021/01/29 08:46:11;;;;;;;;;;;28.40;36.40;;;;;;5079195;28;19920;-60
2021/01/29 08:48:46;;;;;;;;;;;28.40;36.50;;;;;;5085014;28;19999;-62
2021/01/29 08:51:31;;;;;;;;;;;28.40;36.40;;;;;;5055974;28;19912;-64
2021/01/29 08:54:15;;;;;;;;;;;28.40;36.20;;;;;;5074061;28;19916;-58
2021/01/29 08:56:59;;;;;;;;;;;28.40;36.30;;;;;;5056163;28;19912;-60
2021/01/29 08:59:29;;;;;;;;;;;28.40;36.30;;;;;;5082157;28;19955;-62
2021/01/29 09:02:00;;;;;;;;;;;28.40;36.20;;;;;;5074284;28;19912;-53
2021/01/29 09:04:30;;;;;;;;;;;28.50;36.20;;;;;;5079344;28;19949;-56
2021/01/29 09:06:56;;;;;;;;;;;28.50;36.30;;;;;;5055952;28;20413;-52
2021/01/29 09:09:23;;;;;;;;;;;28.50;36.00;;;;;;5075584;28;19908;-54
2021/01/29 09:11:49;;;;;;;;;;;28.50;35.90;;;;;;5075768;28;19947;-56
2021/01/29 09:14:23;;;;;;;;;;;28.60;35.70;;;;;;5087310;28;19995;-57
2021/01/29 09:16:48;;;;;;;;;;;28.60;35.50;;;;;;5080299;28;20285;-54
2021/01/29 09:19:15;;;;;;;;;;;28.60;35.50;;;;;;5089186;28;19920;-55
2021/01/29 09:21:51;;;;;;;;;;;28.60;35.30;;;;;;5074715;28;19908;-52
2021/01/29 09:24:36;;;;;;;;;;;28.70;35.20;;;;;;5055369;28;19908;-55
2021/01/29 09:27:04;;;;;;;;;;;28.70;35.20;;;;;;5073265;28;19939;-55
2021/01/29 09:29:30;;;;;;;;;;;28.60;35.00;;;;;;5088334;28;19997;-56
2021/01/29 09:32:03;;;;;;;;;;;28.70;35.00;;;;;;5071302;28;19981;-52
2021/01/29 09:34:36;;;;;;;;;;;28.70;34.90;;;;;;5055410;28;19912;-55
2021/01/29 09:37:04;;;;;;;;;;;28.70;34.90;;;;;;5054540;28;19999;-57
2021/01/29 09:39:30;;;;;;;;;;;28.70;34.90;;;;;;5088242;28;19916;-53
2021/01/29 09:41:57;;;;;;;;;;;28.70;34.80;;;;;;5059917;28;20309;-54
2021/01/29 09:44:41;;;;;;;;;;;28.70;34.70;;;;;;5054959;28;19954;-56
2021/01/29 09:47:07;;;;;;;;;;;28.70;34.60;;;;;;5087892;28;19944;-53
2021/01/29 09:49:33;;;;;;;;;;;28.70;34.60;;;;;;5073572;28;20434;-55
2021/01/29 09:51:59;;;;;;;;;;;28.70;34.60;;;;;;5093183;28;19912;-54
2021/01/29 09:54:34;;;;;;;;;;;28.70;34.50;;;;;;5088990;28;19908;-50
2021/01/29 09:57:06;;;;;;;;;;;28.70;34.50;;;;;;5072866;28;19920;-52
2021/01/29 09:59:51;;;;;;;;;;;28.70;34.50;;;;;;5066413;28;19917;-52
2021/01/29 10:02:32;;;;;;;;;;;28.70;34.40;;;;;;5073240;28;19916;-57
2021/01/29 10:05:27;;;;;;;;;;;28.70;34.50;;;;;;5054945;28;19966;-59
2021/01/29 10:07:56;;;;;;;;;;;28.70;34.60;;;;;;5065517;28;20098;-61
2021/01/29 10:10:35;;;;;;;;;;;28.70;34.90;;;;;;5093032;28;20026;-62
2021/01/29 10:13:03;;;;;;;;;;;28.70;34.90;;;;;;5071728;28;19916;-58
2021/01/29 10:15:29;;;;;;;;;;;28.70;34.90;;;;;;5072775;28;20391;-59
2021/01/29 10:17:55;;;;;;;;;;;28.70;34.90;;;;;;5074461;28;19922;-59
2021/01/29 10:20:24;;;;;;;;;;;28.70;35.10;;;;;;5081094;28;19917;-65
2021/01/29 10:22:57;;;;;;;;;;;28.70;35.30;;;;;;5073237;28;19916;-69
2021/01/29 10:25:41;;;;;;;;;;;28.70;35.40;;;;;;5071878;28;20281;-68
2021/01/29 10:28:16;;;;;;;;;;;28.70;35.00;;;;;;5092989;28;20266;-58
2021/01/29 10:30:58;;;;;;;;;;;28.60;35.30;;;;;;5065870;28;20021;-67
2021/01/29 10:33:24;;;;;;;;;;;28.60;35.30;;;;;;5066672;28;19919;-58
2021/01/29 10:35:54;;;;;;;;;;;28.60;35.00;;;;;;5069603;28;19912;-53
2021/01/29 10:38:40;;;;;;;;;;;28.70;35.00;;;;;;5071695;28;19920;-67
2021/01/29 10:41:12;;;;;;;;;;;28.70;34.90;;;;;;5068421;28;20294;-60
2021/01/29 10:43:38;;;;;;;;;;;28.70;34.90;;;;;;5091351;28;19912;-57
2021/01/29 10:46:04;;;;;;;;;;;28.70;34.90;;;;;;5077756;28;19908;-63
2021/01/29 10:48:48;;;;;;;;;;;28.80;34.80;;;;;;5096486;28;19965;-54
2021/01/29 10:51:30;;;;;;;;;;;28.70;34.90;;;;;;5094865;28;19919;-62
2021/01/29 10:53:56;;;;;;;;;;;;;;;;;;5059700;28;19934;-61
2021/01/29 10:56:21;;;;;;;;;;;28.80;40.90;;;;;;5083394;28;19912;-56
2021/01/29 10:58:48;;;;;;;;;;;28.50;36.20;;;;;;5064511;28;19920;-66
2021/01/29 11:01:20;;;;;;;;;;;28.60;38.30;;;;;;5085621;28;20273;-69
2021/01/29 11:03:48;;;;;;;;;;;28.80;37.80;;;;;;5093702;28;19916;-68
2021/01/29 11:06:14;;;;;;;;;;;29.10;37.40;;;;;;5095953;28;20453;-68
2021/01/29 11:08:41;;;;;;;;;;;29.30;35.70;;;;;;5077796;28;19913;-69
2021/01/29 11:11:27;;;;;;;;;;;29.40;35.30;;;;;;5090053;28;19916;-51
2021/01/29 11:14:05;;;;;;;;;;;29.40;35.30;;;;;;5057803;28;19954;-59
2021/01/29 11:16:54;;;;;;;;;;;29.50;35.20;;;;;;5084324;28;19950;-67
2021/01/29 11:19:21;;;;;;;;;;;29.50;35.00;;;;;;5048376;28;20295;-71
2021/01/29 11:21:49;;;;;;;;;;;29.50;34.00;;;;;;5085401;28;19916;-68
2021/01/29 11:24:19;;;;;;;;;;;29.60;33.60;;;;;;5058196;28;19909;-57
2021/01/29 11:27:04;;;;;;;;;;;29.70;33.70;;;;;;5065875;28;19919;-72
2021/01/29 11:29:45;;;;;;;;;;;29.70;33.50;;;;;;5057492;28;19921;-66
2021/01/29 11:32:13;;;;;;;;;;;29.80;33.50;;;;;;5089999;28;20445;-64
2021/01/29 11:34:38;;;;;;;;;;;29.80;33.30;;;;;;5075613;28;19938;-63
2021/01/29 11:37:13;;;;;;;;;;;29.80;34.40;;;;;;5057363;28;19913;-52
2021/01/29 11:39:40;;;;;;;;;;;29.80;33.20;;;;;;5075495;28;19916;-66
2021/01/29 11:42:08;;;;;;;;;;;29.80;33.40;;;;;;5089009;28;19916;-62
2021/01/29 11:44:37;;;;;;;;;;;29.90;33.20;;;;;;5095246;28;20479;-65
2021/01/29 11:47:05;;;;;;;;;;;29.90;33.70;;;;;;5077060;28;19912;-58
2021/01/29 11:49:35;;;;;;;;;;;29.90;33.30;;;;;;5077359;28;20376;-61
2021/01/29 11:52:12;;;;;;;;;;;30.00;33.00;;;;;;5082117;28;19958;-60
2021/01/29 11:54:39;;;;;;;;;;;30.00;32.90;;;;;;5058306;28;19913;-60
2021/01/29 11:57:10;;;;;;;;;;;30.10;32.80;;;;;;5055971;28;19909;-60
2021/01/29 11:59:45;;;;;;;;;;;30.10;32.70;;;;;;5074808;28;20045;-58
2021/01/29 12:02:27;;;;;;;;;;;30.10;32.80;;;;;;5080903;28;20394;-61
2021/01/29 12:04:53;;;;;;;;;;;29.90;33.20;;;;;;5094909;28;19931;-59
2021/01/29 12:07:23;;;;;;;;;;;29.80;33.30;;;;;;5073401;28;19920;-57
2021/01/29 12:10:03;;;;;;;;;;;30.00;33.70;;;;;;5057148;28;19908;-64
2021/01/29 12:12:29;;;;;;;;;;;30.00;33.00;;;;;;5073292;28;20324;-64
2021/01/29 12:15:01;;;;;;;;;;;29.90;30.50;;;;;;5076771;28;19908;-64
2021/01/29 12:17:27;;;;;;;;;;;29.60;29.80;;;;;;5077892;28;19927;-55
2021/01/29 12:20:00;;;;;;;;;;;29.30;32.50;;;;;;5074470;28;20018;-58
2021/01/29 12:22:27;;;;;;;;;;;29.50;32.10;;;;;;5057647;28;19924;-64
2021/01/29 12:24:59;;;;;;;;;;;29.60;33.60;;;;;;5068966;28;19912;-67
2021/01/29 12:27:26;;;;;;;;;;;29.80;33.30;;;;;;5077235;28;19916;-65
2021/01/29 12:29:52;;;;;;;;;;;30.10;33.30;;;;;;5056167;28;20420;-66
2021/01/29 12:32:37;;;;;;;;;;;30.20;33.30;;;;;;5074170;28;19956;-57
2021/01/29 12:35:04;;;;;;;;;;;30.20;34.10;;;;;;5086259;28;19916;-57
2021/01/29 12:37:34;;;;;;;;;;;30.20;34.90;;;;;;5076364;28;19919;-61
2021/01/29 12:40:23;;;;;;;;;;;30.20;34.90;;;;;;5094360;28;19977;-64
2021/01/29 12:42:55;;;;;;;;;;;30.30;35.10;;;;;;5077112;28;19970;-62
2021/01/29 12:45:25;;;;;;;;;;;30.40;35.30;;;;;;5076082;28;19908;-62
2021/01/29 12:47:56;;;;;;;;;;;30.40;35.10;;;;;;5056569;28;19912;-60
2021/01/29 12:50:41;;;;;;;;;;;30.50;35.30;;;;;;5084588;28;19922;-51
2021/01/29 12:53:25;;;;;;;;;;;30.60;36.00;;;;;;5074055;28;19955;-62
2021/01/29 12:56:09;;;;;;;;;;;30.60;36.30;;;;;;5074015;28;19939;-61
2021/01/29 12:58:38;;;;;;;;;;;30.70;36.00;;;;;;5073857;28;19916;-60
2021/01/29 13:01:04;;;;;;;;;;;30.60;36.10;;;;;;5056113;28;19915;-67
2021/01/29 13:03:41;;;;;;;;;;;30.60;36.70;;;;;;5074667;28;19912;-61
2021/01/29 13:06:08;;;;;;;;;;;30.70;36.30;;;;;;5062543;28;19920;-60
2021/01/29 13:08:33;;;;;;;;;;;30.60;36.10;;;;;;5055621;28;19909;-57
2021/01/29 13:11:01;;;;;;;;;;;30.70;36.10;;;;;;5073378;28;19973;-59
2021/01/29 13:13:30;;;;;;;;;;;30.80;35.90;;;;;;5073909;28;19971;-63
2021/01/29 13:16:07;;;;;;;;;;;30.80;35.90;;;;;;5088978;28;20006;-66
2021/01/29 13:18:40;;;;;;;;;;;30.80;35.70;;;;;;5083687;28;19931;-55
2021/01/29 13:21:06;;;;;;;;;;;30.90;35.60;;;;;;5067381;28;20363;-62
2021/01/29 13:23:32;;;;;;;;;;;30.80;35.50;;;;;;5073467;28;20320;-52
2021/01/29 13:26:01;;;;;;;;;;;30.90;35.50;;;;;;5073191;28;20366;-61
2021/01/29 13:28:28;;;;;;;;;;;30.90;35.40;;;;;;5073415;28;19916;-62
2021/01/29 13:30:53;;;;;;;;;;;30.90;35.30;;;;;;5076966;28;19924;-63
2021/01/29 13:33:21;;;;;;;;;;;30.90;35.20;;;;;;5055326;28;20278;-66
2021/01/29 13:35:48;;;;;;;;;;;30.90;35.10;;;;;;5086734;28;20297;-66
2021/01/29 13:38:13;;;;;;;;;;;30.90;35.00;;;;;;5074992;28;19928;-64
2021/01/29 13:40:39;;;;;;;;;;;31.00;35.00;;;;;;5087338;28;19912;-64
2021/01/29 13:43:08;;;;;;;;;;;30.90;34.90;;;;;;5055367;28;19954;-56
2021/01/29 13:45:34;;;;;;;;;;;30.80;32.90;;;;;;5069641;28;19919;-54
2021/01/29 13:48:06;;;;;;;;;;;30.60;34.10;;;;;;5081125;28;19912;-57
2021/01/29 13:50:39;;;;;;;;;;;30.60;34.60;;;;;;5081465;28;19948;-62
2021/01/29 13:53:05;;;;;;;;;;;30.70;34.60;;;;;;5079380;28;19965;-64
2021/01/29 13:55:52;;;;;;;;;;;30.80;34.60;;;;;;5073035;28;19961;-65
2021/01/29 13:58:38;;;;;;;;;;;30.80;34.60;;;;;;5072807;28;20251;-64
2021/01/29 14:01:11;;;;;;;;;;;30.90;34.60;;;;;;5060801;28;19916;-65
2021/01/29 14:03:37;;;;;;;;;;;30.90;34.50;;;;;;5066541;28;19942;-62
2021/01/29 14:06:04;;;;;;;;;;;30.90;34.40;;;;;;5091822;28;19997;-56
2021/01/29 14:08:31;;;;;;;;;;;31.00;34.40;;;;;;5085712;28;19913;-64
2021/01/29 14:10:56;;;;;;;;;;;31.00;34.40;;;;;;5072579;28;20007;-64
2021/01/29 14:13:32;;;;;;;;;;;31.00;34.40;;;;;;5079604;28;19970;-61
2021/01/29 14:16:16;;;;;;;;;;;31.00;34.40;;;;;;5057125;28;19935;-62
2021/01/29 14:18:47;;;;;;;;;;;31.00;34.30;;;;;;5072732;28;19916;-59
2021/01/29 14:21:19;;;;;;;;;;;30.90;34.90;;;;;;5059600;28;19913;-55
2021/01/29 14:23:49;;;;;;;;;;;30.80;34.90;;;;;;5076857;28;19938;-59
2021/01/29 14:26:16;;;;;;;;;;;30.70;35.10;;;;;;5082808;28;19916;-54
2021/01/29 14:28:41;;;;;;;;;;;30.80;35.00;;;;;;5078667;28;19965;-49
2021/01/29 14:31:12;;;;;;;;;;;30.80;34.90;;;;;;5084191;28;20365;-64
2021/01/29 14:33:47;;;;;;;;;;;30.80;35.00;;;;;;5058864;28;19908;-55
2021/01/29 14:36:45;;;;;;;;;;;30.70;35.20;;;;;;5076593;28;19908;-54
2021/01/29 14:39:10;;;;;;;;;;;30.60;35.50;;;;;;5031559;28;19928;-62
2021/01/29 14:41:36;;;;;;;;;;;30.60;35.40;;;;;;5094413;28;20310;-60
2021/01/29 14:44:06;;;;;;;;;;;30.70;35.10;;;;;;5095114;28;20388;-60
2021/01/29 14:46:50;;;;;;;;;;;30.90;34.90;;;;;;5058667;28;19952;-61